createdAt,value
2018-01-05T00:02:25.037Z,98481.54
2018-01-05T00:04:54.509Z,98484.44
2018-01-05T00:07:23.273Z,98486.16
2018-01-05T00:09:52.382Z,98482.52
2018-01-05T00:12:21.511Z,98479.06
2018-01-05T00:14:49.842Z,98484.16
2018-01-05T00:17:18.989Z,98482.06
2018-01-05T00:19:47.341Z,98480.84
2018-01-05T00:22:16.433Z,98494.30
2018-01-05T00:24:45.562Z,98501.22
2018-01-05T00:27:13.888Z,98495.28
2018-01-05T00:29:43.020Z,98500.80
2018-01-05T00:32:11.376Z,98505.46
2018-01-05T00:34:40.137Z,98502.72
2018-01-05T00:37:08.481Z,98503.23
2018-01-05T00:39:37.242Z,98512.58
2018-01-05T00:42:05.569Z,98508.66
2018-01-05T00:44:34.285Z,98506.17
2018-01-05T00:47:03.438Z,98515.55
2018-01-05T00:49:32.216Z,98518.03
2018-01-05T00:52:00.526Z,98518.74
2018-01-05T00:54:28.842Z,98529.95
2018-01-05T00:56:57.192Z,98527.02
2018-01-05T00:59:26.657Z,98530.62
2018-01-05T01:01:55.029Z,98528.54
2018-01-05T01:04:23.380Z,98533.08
2018-01-05T01:06:51.712Z,98536.48
2018-01-05T01:09:20.064Z,98536.82
2018-01-05T01:11:48.388Z,98541.35
2018-01-05T01:14:17.508Z,98545.12
2018-01-05T01:16:45.888Z,98552.80
2018-01-05T01:19:14.221Z,98554.45
2018-01-05T01:21:43.352Z,98559.83
2018-01-05T01:24:11.668Z,98564.85
2018-01-05T01:26:40.416Z,98570.98
2018-01-05T01:29:09.184Z,98566.14
2018-01-05T01:31:38.272Z,98569.66
2018-01-05T01:34:06.636Z,98566.68
2018-01-05T01:36:34.984Z,98569.88
2018-01-05T01:39:04.076Z,98569.04
2018-01-05T01:41:33.220Z,98581.86
2018-01-05T01:44:01.976Z,98589.83
2018-01-05T01:46:30.331Z,98591.80
2018-01-05T01:48:59.089Z,98595.22
2018-01-05T01:51:28.223Z,98596.99
2018-01-05T01:53:56.936Z,98614.42
2018-01-05T01:56:25.259Z,98611.52
2018-01-05T01:58:54.388Z,98621.00
2018-01-05T02:01:22.720Z,98618.66
2018-01-05T02:03:51.856Z,98610.23
2018-01-05T02:06:20.948Z,98619.32
2018-01-05T02:08:49.273Z,98623.09
2018-01-05T02:11:18.764Z,98627.31
2018-01-05T02:13:47.101Z,98637.80
2018-01-05T02:16:15.460Z,98617.53
2018-01-05T02:18:44.205Z,98636.47
2018-01-05T02:21:12.535Z,98627.93
2018-01-05T02:23:41.779Z,98638.84
2018-01-05T02:26:10.121Z,98638.56
2018-01-05T02:28:38.515Z,98648.34
2018-01-05T02:31:06.840Z,98635.47
2018-01-05T02:33:35.595Z,98638.42
2018-01-05T02:36:03.912Z,98633.16
2018-01-05T02:38:32.276Z,98631.67
2018-01-05T02:41:01.408Z,98634.82
2018-01-05T02:43:29.780Z,98644.36
2018-01-05T02:45:58.121Z,98643.55
2018-01-05T02:48:27.587Z,98654.05
2018-01-05T02:50:55.964Z,98657.63
2018-01-05T02:53:25.107Z,98669.56
2018-01-05T02:55:54.208Z,98672.55
2018-01-05T02:58:22.539Z,98669.34
2018-01-05T03:00:50.900Z,98675.55
2018-01-05T03:03:19.640Z,98673.48
2018-01-05T03:05:48.773Z,98677.20
2018-01-05T03:08:17.545Z,98680.69
2018-01-05T03:10:45.907Z,98672.00
2018-01-05T03:13:15.004Z,98677.34
2018-01-05T03:15:44.135Z,98689.26
2018-01-05T03:18:12.511Z,98694.74
2018-01-05T03:20:40.891Z,98700.63
2018-01-05T03:23:09.231Z,98700.11
2018-01-05T03:25:38.335Z,98707.14
2018-01-05T03:28:07.497Z,98696.48
2018-01-05T03:30:36.597Z,98709.25
2018-01-05T03:33:05.315Z,98708.08
2018-01-05T03:35:34.455Z,98713.06
2018-01-05T03:38:03.104Z,98722.16
2018-01-05T03:40:31.431Z,98735.20
2018-01-05T03:42:59.824Z,98746.97
2018-01-05T03:45:28.547Z,98759.57
2018-01-05T03:47:57.327Z,98755.16
2018-01-05T03:50:26.427Z,98754.49
2018-01-05T03:52:54.799Z,98747.05
2018-01-05T03:55:23.931Z,98751.33
2018-01-05T03:57:52.663Z,98758.33
2018-01-05T04:00:21.415Z,98770.88
2018-01-05T04:02:50.139Z,98783.60
2018-01-05T04:05:19.283Z,98777.69
2018-01-05T04:07:47.639Z,98782.02
2018-01-05T04:10:15.947Z,98789.69
2018-01-05T04:12:45.102Z,98798.24
2018-01-05T04:15:14.407Z,98803.84
2018-01-05T04:17:43.167Z,98799.92
2018-01-05T04:20:11.502Z,98805.03
2018-01-05T04:22:40.251Z,98812.21
2018-01-05T04:25:09.381Z,98816.36
2018-01-05T04:27:38.534Z,98818.84
2018-01-05T04:30:07.643Z,98816.24
2018-01-05T04:32:36.047Z,98812.76
2018-01-05T04:35:04.431Z,98816.56
2018-01-05T04:37:32.751Z,98823.77
2018-01-05T04:40:02.843Z,98818.10
2018-01-05T04:42:31.180Z,98823.41
2018-01-05T04:44:59.555Z,98832.58
2018-01-05T04:47:28.634Z,98832.00
2018-01-05T04:49:58.116Z,98832.33
2018-01-05T04:52:26.826Z,98835.97
2018-01-05T04:54:55.578Z,98837.41
2018-01-05T04:57:24.712Z,98832.34
2018-01-05T04:59:54.382Z,98832.86
2018-01-05T05:02:22.735Z,98832.70
2018-01-05T05:04:51.831Z,98844.70
2018-01-05T05:07:20.161Z,98850.47
2018-01-05T05:09:49.286Z,98838.69
2018-01-05T05:12:18.394Z,98845.95
2018-01-05T05:14:47.519Z,98848.06
2018-01-05T05:17:16.276Z,98850.69
2018-01-05T05:19:44.658Z,98849.61
2018-01-05T05:22:13.369Z,98854.45
2018-01-05T05:24:41.738Z,98858.36
2018-01-05T05:27:10.835Z,98858.69
2018-01-05T05:29:39.210Z,98854.92
2018-01-05T05:32:08.302Z,98861.23
2018-01-05T05:34:36.614Z,98853.62
2018-01-05T05:37:05.362Z,98861.52
2018-01-05T05:39:33.682Z,98870.78
2018-01-05T05:42:02.796Z,98868.78
2018-01-05T05:44:31.122Z,98870.12
2018-01-05T05:46:59.515Z,98873.72
2018-01-05T05:49:28.974Z,98865.95
2018-01-05T05:51:57.304Z,98868.31
2018-01-05T05:54:26.038Z,98870.67
2018-01-05T05:56:54.367Z,98874.26
2018-01-05T05:59:23.493Z,98880.73
2018-01-05T06:01:51.842Z,98870.17
2018-01-05T06:04:20.224Z,98896.19
2018-01-05T06:06:49.326Z,98888.59
2018-01-05T06:09:18.434Z,98899.00
2018-01-05T06:11:47.602Z,98890.06
2018-01-05T06:14:16.319Z,98893.84
2018-01-05T06:16:45.119Z,98897.91
2018-01-05T06:19:14.222Z,98899.14
2018-01-05T06:21:42.980Z,98907.57
2018-01-05T06:24:12.086Z,98915.41
2018-01-05T06:26:40.409Z,98921.20
2018-01-05T06:29:08.774Z,98939.42
2018-01-05T06:31:37.138Z,98931.89
2018-01-05T06:34:05.466Z,98933.73
2018-01-05T06:36:33.846Z,98940.06
2018-01-05T06:39:03.742Z,98929.23
2018-01-05T06:41:33.629Z,98933.69
2018-01-05T06:44:03.082Z,98932.41
2018-01-05T06:46:32.198Z,98930.34
2018-01-05T06:49:00.924Z,98936.13
2018-01-05T06:51:29.665Z,98944.94
2018-01-05T06:53:59.341Z,98948.80
2018-01-05T06:56:27.693Z,98966.91
2018-01-05T06:58:56.027Z,98956.73
2018-01-05T07:01:25.154Z,98955.23
2018-01-05T07:03:54.282Z,98965.05
2018-01-05T07:06:22.601Z,98965.45
2018-01-05T07:08:51.725Z,98963.20
2018-01-05T07:11:20.050Z,98964.96
2018-01-05T07:13:48.821Z,98968.72
2018-01-05T07:16:17.140Z,98976.36
2018-01-05T07:18:45.882Z,98971.87
2018-01-05T07:21:14.753Z,98977.92
2018-01-05T07:23:43.122Z,98979.76
2018-01-05T07:26:11.494Z,98973.05
2018-01-05T07:28:39.845Z,98969.80
2018-01-05T07:31:08.973Z,98983.12
2018-01-05T07:33:37.325Z,98981.05
2018-01-05T07:36:05.677Z,98995.02
2018-01-05T07:38:34.038Z,99002.72
2018-01-05T07:41:02.433Z,98995.00
2018-01-05T07:43:30.793Z,98999.52
2018-01-05T07:45:59.161Z,98970.78
2018-01-05T07:48:27.533Z,99006.74
2018-01-05T07:50:56.250Z,99016.05
2018-01-05T07:53:24.621Z,99009.61
2018-01-05T07:55:53.726Z,99006.06
2018-01-05T07:58:22.109Z,99007.41
2018-01-05T08:00:51.254Z,99008.63
2018-01-05T08:03:19.577Z,99012.02
2018-01-05T08:05:47.965Z,99014.38
2018-01-05T08:08:17.438Z,99005.30
2018-01-05T08:10:45.799Z,99002.05
2018-01-05T08:13:14.123Z,99014.47
2018-01-05T08:15:42.945Z,99012.50
2018-01-05T08:18:11.762Z,99001.80
2018-01-05T08:20:40.081Z,98994.75
2018-01-05T08:23:09.241Z,99006.16
2018-01-05T08:25:38.305Z,99005.78
2018-01-05T08:28:07.983Z,99001.80
2018-01-05T08:30:37.233Z,99007.73
2018-01-05T08:33:07.715Z,99008.14
2018-01-05T08:35:36.857Z,99016.70
2018-01-05T08:38:05.289Z,99005.17
2018-01-05T08:40:33.626Z,99005.24
2018-01-05T08:43:01.997Z,99002.55
2018-01-05T08:45:31.991Z,99005.19
2018-01-05T08:48:00.357Z,98992.54
2018-01-05T08:50:30.413Z,99000.80
2018-01-05T08:52:59.605Z,98990.48
2018-01-05T08:55:28.793Z,98991.91
2018-01-05T08:57:57.166Z,98995.11
2018-01-05T09:00:29.829Z,98999.89
2018-01-05T09:02:58.621Z,98996.14
2018-01-05T09:05:27.087Z,99001.87
2018-01-05T09:07:55.469Z,98995.07
2018-01-05T09:10:24.528Z,98995.53
2018-01-05T09:12:52.965Z,98998.06
2018-01-05T09:15:21.336Z,98994.21
2018-01-05T09:17:49.685Z,98995.96
2018-01-05T09:20:19.581Z,98998.27
2018-01-05T09:22:48.430Z,98988.18
2018-01-05T09:25:17.188Z,98984.61
2018-01-05T09:27:45.569Z,98984.12
2018-01-05T09:30:13.893Z,98987.19
2018-01-05T09:32:42.242Z,98985.05
2018-01-05T09:35:10.984Z,98974.47
2018-01-05T09:37:40.078Z,98973.63
2018-01-05T09:40:09.221Z,98973.45
2018-01-05T09:42:38.900Z,98965.38
2018-01-05T09:45:07.268Z,98960.57
2018-01-05T09:47:35.994Z,98958.91
2018-01-05T09:50:04.361Z,98961.48
2018-01-05T09:52:34.285Z,98949.63
2018-01-05T09:55:03.418Z,98958.20
2018-01-05T09:57:31.750Z,98956.63
2018-01-05T10:00:00.869Z,98953.84
2018-01-05T10:02:29.187Z,98943.03
2018-01-05T10:04:58.312Z,98959.03
2018-01-05T10:07:26.696Z,98945.37
2018-01-05T10:09:55.024Z,98949.63
2018-01-05T10:12:24.164Z,98938.81
2018-01-05T10:14:52.492Z,98944.40
2018-01-05T10:17:20.850Z,98949.30
2018-01-05T10:19:49.160Z,98949.25
2018-01-05T10:22:18.252Z,98951.56
2018-01-05T10:24:47.380Z,98961.89
2018-01-05T10:27:16.477Z,98970.09
2018-01-05T10:29:44.827Z,98976.27
2018-01-05T10:32:13.961Z,98976.15
2018-01-05T10:34:42.328Z,98970.05
2018-01-05T10:37:10.722Z,98976.55
2018-01-05T10:39:39.055Z,98975.06
2018-01-05T10:42:08.941Z,98971.42
2018-01-05T10:44:37.319Z,98976.47
2018-01-05T10:47:06.052Z,98971.70
2018-01-05T10:49:35.202Z,98981.17
2018-01-05T10:52:03.548Z,98979.72
2018-01-05T10:54:31.932Z,98981.52
2018-01-05T10:57:00.288Z,98974.61
2018-01-05T10:59:29.549Z,98986.27
2018-01-05T11:01:58.661Z,98981.50
2018-01-05T11:04:27.792Z,98988.63
2018-01-05T11:06:57.525Z,98988.98
2018-01-05T11:09:26.620Z,98976.78
2018-01-05T11:11:54.972Z,98995.00
2018-01-05T11:14:23.341Z,98983.69
2018-01-05T11:16:51.687Z,98984.48
2018-01-05T11:19:20.824Z,99003.22
2018-01-05T11:21:49.980Z,99016.89
2018-01-05T11:24:19.127Z,99009.16
2018-01-05T11:26:47.480Z,99003.84
2018-01-05T11:29:16.608Z,98992.14
2018-01-05T11:31:44.940Z,99007.30
2018-01-05T11:34:13.725Z,99008.06
2018-01-05T11:36:42.816Z,98997.28
2018-01-05T11:39:11.955Z,99003.44
2018-01-05T11:41:41.836Z,99001.81
2018-01-05T11:44:11.023Z,98997.77
2018-01-05T11:46:40.151Z,98996.98
2018-01-05T11:49:09.263Z,99000.03
2018-01-05T11:51:37.612Z,98999.56
2018-01-05T11:54:06.393Z,99011.51
2018-01-05T11:56:34.724Z,99011.67
2018-01-05T11:59:03.076Z,99019.77
2018-01-05T12:01:31.455Z,99018.92
2018-01-05T12:04:00.231Z,99023.42
2018-01-05T12:06:29.712Z,99015.99
2018-01-05T12:08:59.639Z,99018.69
2018-01-05T12:11:28.378Z,99028.70
2018-01-05T12:13:56.755Z,99021.27
2018-01-05T12:16:25.515Z,99011.21
2018-01-05T12:18:54.611Z,99009.16
2018-01-05T12:21:22.955Z,99008.20
2018-01-05T12:23:52.690Z,99006.23
2018-01-05T12:26:21.039Z,99012.25
2018-01-05T12:28:50.159Z,99008.83
2018-01-05T12:31:18.527Z,99023.84
2018-01-05T12:33:47.304Z,99038.52
2018-01-05T12:36:15.649Z,99025.39
2018-01-05T12:38:44.427Z,99032.73
2018-01-05T12:41:13.148Z,99032.28
2018-01-05T12:43:42.871Z,99057.22
2018-01-05T12:46:11.205Z,99043.95
2018-01-05T12:48:40.348Z,99052.52
2018-01-05T12:51:10.185Z,99054.44
2018-01-05T12:53:39.351Z,99064.30
2018-01-05T12:56:07.685Z,99074.16
2018-01-05T12:58:36.057Z,99069.96
2018-01-05T13:01:04.392Z,99059.64
2018-01-05T13:03:32.763Z,99065.06
2018-01-05T13:06:01.103Z,99077.47
2018-01-05T13:08:29.463Z,99071.42
2018-01-05T13:10:57.790Z,99073.86
2018-01-05T13:13:26.194Z,99071.91
2018-01-05T13:15:55.383Z,99075.30
2018-01-05T13:18:23.735Z,99088.95
2018-01-05T13:20:52.892Z,99087.98
2018-01-05T13:23:21.679Z,99095.47
2018-01-05T13:25:50.059Z,99100.80
2018-01-05T13:28:19.201Z,99101.55
2018-01-05T13:30:49.272Z,99104.44
2018-01-05T13:33:18.727Z,99109.91
2018-01-05T13:35:48.767Z,99113.41
2018-01-05T13:38:17.703Z,99111.23
2018-01-05T13:40:47.692Z,99096.84
2018-01-05T13:43:17.076Z,99106.43
2018-01-05T13:45:45.867Z,99113.55
2018-01-05T13:48:14.202Z,99131.59
2018-01-05T13:50:43.728Z,99116.55
2018-01-05T13:53:12.086Z,99129.74
2018-01-05T13:55:41.379Z,99128.77
2018-01-05T13:58:11.114Z,99125.76
2018-01-05T14:00:39.944Z,99124.91
2018-01-05T14:03:08.286Z,99129.76
2018-01-05T14:05:36.618Z,99121.55
2018-01-05T14:08:05.011Z,99129.12
2018-01-05T14:10:34.148Z,99136.17
2018-01-05T14:13:03.671Z,99136.83
2018-01-05T14:15:33.286Z,99144.48
2018-01-05T14:18:02.222Z,99156.88
2018-01-05T14:20:31.413Z,99175.03
2018-01-05T14:22:59.802Z,99143.34
2018-01-05T14:25:29.864Z,99156.14
2018-01-05T14:27:58.540Z,99167.18
2018-01-05T14:30:28.331Z,99163.59
2018-01-05T14:32:57.534Z,99167.89
2018-01-05T14:35:27.406Z,99155.58
2018-01-05T14:37:56.121Z,99167.55
2018-01-05T14:40:25.215Z,99164.65
2018-01-05T14:42:53.586Z,99194.61
2018-01-05T14:45:23.051Z,99200.98
2018-01-05T14:47:51.406Z,99196.07
2018-01-05T14:53:03.209Z,99190.05
2018-01-05T14:55:31.554Z,99187.97
2018-01-05T14:58:00.666Z,99188.51
2018-01-05T15:00:29.022Z,99199.63
2018-01-05T15:02:58.133Z,99194.38
2018-01-05T15:05:27.218Z,99185.05
2018-01-05T15:07:56.095Z,99176.86
2018-01-05T15:10:25.982Z,99194.68
2018-01-05T15:12:54.940Z,99216.47
2018-01-05T15:15:24.410Z,99210.55
2018-01-05T15:17:53.640Z,99212.92
2018-01-05T15:20:22.842Z,99211.84
2018-01-05T15:22:52.343Z,99204.84
2018-01-05T15:25:20.666Z,99204.41
2018-01-05T15:27:49.414Z,99203.05
2018-01-05T15:30:17.858Z,99218.77
2018-01-05T15:32:47.722Z,99212.48
2018-01-05T15:35:17.623Z,99211.98
2018-01-05T15:37:46.466Z,99216.48
2018-01-05T15:40:16.446Z,99221.40
2018-01-05T15:42:44.761Z,99218.77
2018-01-05T15:45:16.154Z,99219.46
2018-01-05T15:47:45.854Z,99218.38
2018-01-05T15:50:14.266Z,99221.64
2018-01-05T15:52:43.535Z,99216.02
2018-01-05T15:55:11.974Z,99223.44
2018-01-05T15:57:43.440Z,99227.75
2018-01-05T16:00:13.380Z,99228.47
2018-01-05T16:02:42.287Z,99229.34
2018-01-05T16:05:13.156Z,99230.20
2018-01-05T16:07:42.374Z,99229.14
2018-01-05T16:10:10.714Z,99227.23
2018-01-05T16:12:40.698Z,99232.23
2018-01-05T16:15:09.085Z,99237.22
2018-01-05T16:17:37.429Z,99239.97
2018-01-05T16:20:05.818Z,99246.69
2018-01-05T16:22:34.241Z,99245.80
2018-01-05T16:25:02.701Z,99249.02
2018-01-05T16:27:31.734Z,99259.70
2018-01-05T16:30:02.038Z,99261.89
2018-01-05T16:32:30.477Z,99269.06
2018-01-05T16:34:59.710Z,99262.94
2018-01-05T16:37:28.222Z,99270.39
2018-01-05T16:39:58.111Z,99274.09
2018-01-05T16:42:28.546Z,99286.72
2018-01-05T16:44:57.206Z,99297.48
2018-01-05T16:47:26.400Z,99295.92
2018-01-05T16:49:55.283Z,99298.44
2018-01-05T16:52:23.676Z,99304.29
2018-01-05T16:54:52.063Z,99299.90
2018-01-05T16:57:20.781Z,99313.95
2018-01-05T17:06:03.771Z,99326.35
2018-01-05T17:08:33.352Z,99331.31
2018-01-05T17:11:04.966Z,99323.75
2018-01-05T17:13:33.370Z,99333.10
2018-01-05T17:16:02.805Z,99338.13
2018-01-05T17:18:32.041Z,99343.05
2018-01-05T17:21:00.403Z,99349.73
2018-01-05T17:23:28.770Z,99349.63
2018-01-05T17:25:58.141Z,99353.52
2018-01-05T17:28:28.221Z,99361.14
2018-01-05T17:30:56.803Z,99368.36
2018-01-05T17:33:33.102Z,99359.00
2018-01-05T17:36:02.787Z,99356.70
2018-01-05T17:38:31.729Z,99354.64
2018-01-05T17:41:00.517Z,99355.25
2018-01-05T17:43:28.862Z,99355.85
2018-01-05T17:45:58.786Z,99357.62
2018-01-05T17:48:28.066Z,99360.33
2018-01-05T17:50:56.465Z,99357.41
2018-01-05T17:53:24.801Z,99367.87
2018-01-05T17:55:54.043Z,99373.98
2018-01-05T17:58:23.645Z,99381.43
2018-01-05T18:00:52.763Z,99384.55
2018-01-05T18:03:21.249Z,99387.58
2018-01-05T18:05:49.682Z,99392.08
2018-01-05T18:08:18.274Z,99399.20
2018-01-05T18:10:48.588Z,99403.78
2018-01-05T18:13:17.149Z,99406.59
2018-01-05T18:15:45.693Z,99409.33
2018-01-05T18:18:14.246Z,99412.90
2018-01-05T18:20:43.348Z,99418.02
2018-01-05T18:23:12.470Z,99422.73
2018-01-05T18:25:42.557Z,99424.50
2018-01-05T18:28:12.057Z,99423.59
2018-01-05T18:30:43.683Z,99435.01
2018-01-05T18:33:12.589Z,99447.33
2018-01-05T18:35:44.724Z,99459.17
2018-01-05T18:38:13.324Z,99452.94
2018-01-05T18:40:42.794Z,99464.31
2018-01-05T18:43:11.835Z,99463.83
2018-01-05T18:45:40.317Z,99459.03
2018-01-05T18:48:08.782Z,99451.67
2018-01-05T18:50:37.168Z,99452.14
2018-01-05T18:53:06.564Z,99460.50
2018-01-05T18:55:36.782Z,99467.58
2018-01-05T18:58:05.409Z,99466.79
2018-01-05T19:00:34.758Z,99466.41
2018-01-05T19:03:03.159Z,99470.77
2018-01-05T19:05:32.702Z,99465.94
2018-01-05T19:08:01.264Z,99469.84
2018-01-05T19:10:30.520Z,99466.66
2018-01-05T19:12:58.880Z,99463.77
2018-01-05T19:15:28.303Z,99464.81
2018-01-05T19:17:56.684Z,99460.66
2018-01-05T19:20:25.055Z,99462.48
2018-01-05T19:22:53.615Z,99467.45
2018-01-05T19:25:23.640Z,99475.67
2018-01-05T19:27:52.804Z,99477.16
2018-01-05T19:30:23.676Z,99476.20
2018-01-05T19:32:55.732Z,99469.18
2018-01-05T19:35:24.793Z,99466.59
2018-01-05T19:37:54.578Z,99469.87
2018-01-05T19:40:24.614Z,99472.30
2018-01-05T19:43:06.687Z,99475.94
2018-01-05T19:45:35.672Z,99482.23
2018-01-05T19:48:07.228Z,99489.39
2018-01-05T19:50:37.097Z,99491.81
2018-01-05T19:53:06.740Z,99495.11
2018-01-05T19:55:36.148Z,99493.50
2018-01-05T19:58:05.939Z,99500.16
2018-01-05T20:00:35.813Z,99490.21
2018-01-05T20:03:05.853Z,99493.91
2018-01-05T20:05:34.920Z,99484.45
2018-01-05T20:08:04.174Z,99481.85
2018-01-05T20:10:33.515Z,99487.97
2018-01-05T20:13:01.877Z,99487.12
2018-01-05T20:15:31.791Z,99489.83
2018-01-05T20:18:00.946Z,99480.38
2018-01-05T20:20:30.989Z,99492.83
2018-01-05T20:23:00.295Z,99495.09
2018-01-05T20:25:32.439Z,99494.73
2018-01-05T20:28:02.149Z,99494.33
2018-01-05T20:30:38.167Z,99492.55
2018-01-05T20:33:17.429Z,99488.00
2018-01-05T20:35:45.926Z,99499.58
2018-01-05T20:38:15.823Z,99499.44
2018-01-05T20:40:45.349Z,99503.41
2018-01-05T20:43:14.213Z,99504.81
2018-01-05T20:45:42.636Z,99501.52
2018-01-05T20:48:11.777Z,99508.70
2018-01-05T20:50:41.971Z,99505.78
2018-01-05T20:53:15.269Z,99514.57
2018-01-05T20:55:45.284Z,99515.91
2018-01-05T20:58:15.372Z,99514.33
2018-01-05T21:00:43.707Z,99519.74
2018-01-05T21:03:13.841Z,99523.80
2018-01-05T21:05:43.874Z,99528.14
2018-01-05T21:08:13.307Z,99528.52
2018-01-05T21:10:41.747Z,99537.09
2018-01-05T21:13:11.059Z,99528.57
2018-01-05T21:15:39.445Z,99516.92
2018-01-05T21:18:07.856Z,99516.57
2018-01-05T21:20:36.184Z,99518.77
2018-01-05T21:23:04.538Z,99519.55
2018-01-05T21:25:34.007Z,99524.37
2018-01-05T21:28:03.257Z,99516.55
2018-01-05T21:30:32.625Z,99516.73
2018-01-05T21:33:03.444Z,99532.77
2018-01-05T21:35:32.610Z,99537.27
2018-01-05T21:38:02.606Z,99539.90
2018-01-05T21:40:33.608Z,99542.23
2018-01-05T21:43:05.919Z,99543.20
2018-01-05T21:45:38.643Z,99546.35
2018-01-05T21:48:10.739Z,99544.66
2018-01-05T21:50:44.195Z,99553.89
2018-01-05T21:53:15.319Z,99559.28
2018-01-05T21:55:44.662Z,99562.73
2018-01-05T21:58:14.406Z,99565.42
2018-01-05T22:00:44.195Z,99563.62
2018-01-05T22:03:15.252Z,99568.48
2018-01-05T22:05:44.843Z,99571.94
2018-01-05T22:08:14.095Z,99575.02
2018-01-05T22:10:43.706Z,99572.95
2018-01-05T22:13:13.573Z,99571.41
2018-01-05T22:15:42.710Z,99569.91
2018-01-05T22:18:13.314Z,99563.67
2018-01-05T22:20:41.755Z,99569.80
2018-01-05T22:23:12.030Z,99571.49
2018-01-05T22:25:41.126Z,99573.55
2018-01-05T22:28:09.543Z,99578.73
2018-01-05T22:30:39.795Z,99588.25
2018-01-05T22:33:08.187Z,99590.83
2018-01-05T22:35:36.992Z,99594.86
2018-01-05T22:38:05.514Z,99601.16
2018-01-05T22:40:33.998Z,99596.92
2018-01-05T22:43:03.032Z,99594.72
2018-01-05T22:45:32.102Z,99595.61
2018-01-05T22:48:01.235Z,99601.76
2018-01-05T22:50:30.546Z,99608.78
2018-01-05T22:52:58.874Z,99610.11
2018-01-05T22:55:28.130Z,99600.11
2018-01-05T22:57:56.554Z,99599.74
2018-01-05T23:00:25.646Z,99598.45
2018-01-05T23:02:54.790Z,99597.58
2018-01-05T23:05:23.156Z,99599.32
2018-01-05T23:07:52.120Z,99605.90
2018-01-05T23:10:21.242Z,99607.23
2018-01-05T23:12:50.498Z,99609.06
2018-01-05T23:15:19.030Z,99624.44
2018-01-05T23:17:48.258Z,99628.83
2018-01-05T23:20:16.618Z,99634.59
2018-01-05T23:22:46.890Z,99637.66
2018-01-05T23:25:17.902Z,99624.45
2018-01-05T23:27:46.361Z,99624.41
2018-01-05T23:30:15.486Z,99627.45
2018-01-05T23:32:43.927Z,99626.17
2018-01-05T23:35:12.330Z,99627.52
2018-01-05T23:37:40.698Z,99634.16
2018-01-05T23:40:09.054Z,99637.60
2018-01-05T23:42:37.418Z,99636.55
2018-01-05T23:45:05.790Z,99635.66
2018-01-05T23:47:34.110Z,99640.88
2018-01-05T23:50:02.438Z,99634.30
2018-01-05T23:52:31.724Z,99622.06
2018-01-05T23:55:00.854Z,99623.27
2018-01-05T23:57:29.178Z,99626.45
2018-01-05T23:59:57.557Z,99631.31
